sensor_id;sensor_type;location;lat;lon;timestamp;pressure;altitude;pressure_sealevel;temperature;humidity
43281;BME280;62175;49.416;8.690;2022-10-22T00:00:56;100144.17;;;18.45;65.06
43281;BME280;62175;49.416;8.690;2022-10-22T00:03:24;100136.08;;;18.91;65.58
43281;BME280;62175;49.416;8.690;2022-10-22T00:05:50;100117.68;;;19.01;65.98
43281;BME280;62175;49.416;8.690;2022-10-22T00:08:17;100112.88;;;19.04;65.33
43281;BME280;62175;49.416;8.690;2022-10-22T00:10:44;100118.83;;;18.98;66.07
43281;BME280;62175;49.416;8.690;2022-10-22T00:13:12;100123.15;;;18.79;65.92
43281;BME280;62175;49.416;8.690;2022-10-22T00:15:39;100126.43;;;18.99;66.31
43281;BME280;62175;49.416;8.690;2022-10-22T00:18:06;100126.05;;;18.93;65.68
43281;BME280;62175;49.416;8.690;2022-10-22T00:20:33;100136.40;;;18.59;66.05
43281;BME280;62175;49.416;8.690;2022-10-22T00:23:00;100141.71;;;18.68;66.26
43281;BME280;62175;49.416;8.690;2022-10-22T00:25:28;100156.96;;;18.67;65.13
43281;BME280;62175;49.416;8.690;2022-10-22T00:27:54;100168.24;;;18.75;64.64
43281;BME280;62175;49.416;8.690;2022-10-22T00:30:21;100171.90;;;18.81;65.35
43281;BME280;62175;49.416;8.690;2022-10-22T00:32:48;100177.56;;;18.91;64.12
43281;BME280;62175;49.416;8.690;2022-10-22T00:35:15;100185.67;;;18.86;64.81
43281;BME280;62175;49.416;8.690;2022-10-22T00:37:42;100200.38;;;18.95;64.45
43281;BME280;62175;49.416;8.690;2022-10-22T00:40:11;100206.01;;;18.76;63.16
43281;BME280;62175;49.416;8.690;2022-10-22T00:42:38;100210.30;;;18.75;65.53
43281;BME280;62175;49.416;8.690;2022-10-22T00:45:15;100212.61;;;18.69;65.52
43281;BME280;62175;49.416;8.690;2022-10-22T00:47:47;100205.54;;;18.60;64.31
43281;BME280;62175;49.416;8.690;2022-10-22T00:50:18;100206.67;;;18.64;64.54
43281;BME280;62175;49.416;8.690;2022-10-22T00:52:46;100204.44;;;18.57;63.91
43281;BME280;62175;49.416;8.690;2022-10-22T00:55:13;100198.98;;;18.75;64.54
43281;BME280;62175;49.416;8.690;2022-10-22T00:57:41;100194.72;;;18.95;64.90
43281;BME280;62175;49.416;8.690;2022-10-22T01:00:09;100187.92;;;18.55;64.39
43281;BME280;62175;49.416;8.690;2022-10-22T01:02:37;100179.20;;;18.57;64.06
43281;BME280;62175;49.416;8.690;2022-10-22T01:05:05;100186.41;;;18.65;65.34
43281;BME280;62175;49.416;8.690;2022-10-22T01:07:37;100183.49;;;18.46;65.27
43281;BME280;62175;49.416;8.690;2022-10-22T01:10:12;100189.53;;;18.71;65.86
43281;BME280;62175;49.416;8.690;2022-10-22T01:12:45;100192.33;;;18.83;64.04
43281;BME280;62175;49.416;8.690;2022-10-22T01:15:23;100193.21;;;18.43;65.47
43281;BME280;62175;49.416;8.690;2022-10-22T01:17:57;100187.46;;;18.62;64.51
43281;BME280;62175;49.416;8.690;2022-10-22T01:20:41;100179.96;;;18.58;65.15
43281;BME280;62175;49.416;8.690;2022-10-22T01:23:21;100178.93;;;18.74;64.98
43281;BME280;62175;49.416;8.690;2022-10-22T01:25:59;100184.23;;;18.45;64.71
43281;BME280;62175;49.416;8.690;2022-10-22T01:28:47;100179.31;;;18.89;64.79
43281;BME280;62175;49.416;8.690;2022-10-22T01:31:16;100179.24;;;18.55;63.62
43281;BME280;62175;49.416;8.690;2022-10-22T01:33:45;100197.90;;;18.25;63.52
43281;BME280;62175;49.416;8.690;2022-10-22T01:36:13;100202.94;;;18.24;63.81
43281;BME280;62175;49.416;8.690;2022-10-22T01:38:41;100208.30;;;18.27;63.94
43281;BME280;62175;49.416;8.690;2022-10-22T01:41:11;100209.52;;;18.37;62.82
43281;BME280;62175;49.416;8.690;2022-10-22T01:43:39;100212.88;;;18.35;64.51
43281;BME280;62175;49.416;8.690;2022-10-22T01:46:08;100211.26;;;18.51;65.30
43281;BME280;62175;49.416;8.690;2022-10-22T01:48:44;100214.13;;;18.64;64.17
43281;BME280;62175;49.416;8.690;2022-10-22T01:51:29;100209.97;;;18.40;64.18
43281;BME280;62175;49.416;8.690;2022-10-22T01:54:07;100201.34;;;18.53;64.64
43281;BME280;62175;49.416;8.690;2022-10-22T01:56:52;100199.37;;;18.26;63.44
43281;BME280;62175;49.416;8.690;2022-10-22T01:59:31;100198.51;;;18.38;64.98
43281;BME280;62175;49.416;8.690;2022-10-22T02:02:05;100199.70;;;18.39;62.91
43281;BME280;62175;49.416;8.690;2022-10-22T02:04:42;100202.96;;;18.48;64.60
43281;BME280;62175;49.416;8.690;2022-10-22T02:07:14;100207.30;;;18.26;62.49
43281;BME280;62175;49.416;8.690;2022-10-22T02:09:44;100208.18;;;18.23;65.55
43281;BME280;62175;49.416;8.690;2022-10-22T02:12:13;100214.30;;;18.11;65.04
43281;BME280;62175;49.416;8.690;2022-10-22T02:14:43;100215.04;;;18.00;64.14
43281;BME280;62175;49.416;8.690;2022-10-22T02:17:13;100217.49;;;18.33;65.22
43281;BME280;62175;49.416;8.690;2022-10-22T02:19:46;100197.66;;;18.14;63.52
43281;BME280;62175;49.416;8.690;2022-10-22T02:22:17;100187.42;;;18.19;63.98
43281;BME280;62175;49.416;8.690;2022-10-22T02:24:45;100188.40;;;18.21;63.69
43281;BME280;62175;49.416;8.690;2022-10-22T02:27:20;100179.58;;;18.29;64.76
43281;BME280;62175;49.416;8.690;2022-10-22T02:29:52;100173.87;;;18.07;64.44
43281;BME280;62175;49.416;8.690;2022-10-22T02:32:25;100171.03;;;18.44;63.91
43281;BME280;62175;49.416;8.690;2022-10-22T02:34:55;100164.33;;;17.83;66.02
43281;BME280;62175;49.416;8.690;2022-10-22T02:37:24;100154.54;;;18.39;65.03
43281;BME280;62175;49.416;8.690;2022-10-22T02:39:52;100141.94;;;18.36;65.05
43281;BME280;62175;49.416;8.690;2022-10-22T02:42:19;100131.40;;;18.35;64.20
43281;BME280;62175;49.416;8.690;2022-10-22T02:44:46;100125.40;;;18.31;64.87
43281;BME280;62175;49.416;8.690;2022-10-22T02:47:13;100126.72;;;18.52;64.39
43281;BME280;62175;49.416;8.690;2022-10-22T02:49:40;100134.92;;;18.34;64.89
43281;BME280;62175;49.416;8.690;2022-10-22T02:52:07;100143.65;;;18.09;63.08
43281;BME280;62175;49.416;8.690;2022-10-22T02:54:34;100140.03;;;17.96;65.24
43281;BME280;62175;49.416;8.690;2022-10-22T02:57:01;100140.75;;;18.09;65.14
43281;BME280;62175;49.416;8.690;2022-10-22T02:59:28;100153.39;;;18.14;65.30
43281;BME280;62175;49.416;8.690;2022-10-22T03:01:55;100151.39;;;17.96;65.51
43281;BME280;62175;49.416;8.690;2022-10-22T03:04:22;100146.32;;;18.30;64.26
43281;BME280;62175;49.416;8.690;2022-10-22T03:06:49;100134.97;;;18.46;65.71
43281;BME280;62175;49.416;8.690;2022-10-22T03:09:16;100121.21;;;18.04;65.48
43281;BME280;62175;49.416;8.690;2022-10-22T03:11:43;100120.45;;;18.04;65.10
43281;BME280;62175;49.416;8.690;2022-10-22T03:14:10;100129.57;;;18.13;64.85
43281;BME280;62175;49.416;8.690;2022-10-22T03:16:37;100132.98;;;17.97;66.28
43281;BME280;62175;49.416;8.690;2022-10-22T03:19:04;100132.64;;;18.42;65.85
43281;BME280;62175;49.416;8.690;2022-10-22T03:21:34;100129.43;;;18.23;64.75
43281;BME280;62175;49.416;8.690;2022-10-22T03:24:06;100114.51;;;18.29;65.35
43281;BME280;62175;49.416;8.690;2022-10-22T03:26:36;100121.98;;;18.18;65.32
43281;BME280;62175;49.416;8.690;2022-10-22T03:29:04;100125.90;;;18.17;64.72
43281;BME280;62175;49.416;8.690;2022-10-22T03:31:32;100130.29;;;18.34;65.79
43281;BME280;62175;49.416;8.690;2022-10-22T03:33:59;100131.32;;;18.20;65.02
43281;BME280;62175;49.416;8.690;2022-10-22T03:36:26;100127.41;;;18.21;66.04
43281;BME280;62175;49.416;8.690;2022-10-22T03:38:53;100129.94;;;18.22;64.56
43281;BME280;62175;49.416;8.690;2022-10-22T03:41:20;100139.45;;;18.21;65.72
43281;BME280;62175;49.416;8.690;2022-10-22T03:43:48;100162.45;;;18.19;65.67
43281;BME280;62175;49.416;8.690;2022-10-22T03:46:14;100199.94;;;18.33;64.49
43281;BME280;62175;49.416;8.690;2022-10-22T03:48:41;100222.27;;;18.26;64.85
43281;BME280;62175;49.416;8.690;2022-10-22T03:51:08;100225.83;;;18.32;63.37
43281;BME280;62175;49.416;8.690;2022-10-22T03:53:35;100223.66;;;18.20;62.66
43281;BME280;62175;49.416;8.690;2022-10-22T03:56:05;100233.65;;;18.12;64.77
43281;BME280;62175;49.416;8.690;2022-10-22T03:58:34;100234.75;;;18.19;64.29
43281;BME280;62175;49.416;8.690;2022-10-22T04:01:04;100240.64;;;18.54;65.63
43281;BME280;62175;49.416;8.690;2022-10-22T04:03:32;100247.31;;;18.24;64.82
43281;BME280;62175;49.416;8.690;2022-10-22T04:06:01;100251.64;;;18.27;63.94
43281;BME280;62175;49.416;8.690;2022-10-22T04:08:28;100258.28;;;18.31;64.52
43281;BME280;62175;49.416;8.690;2022-10-22T04:10:55;100251.66;;;18.37;64.16
43281;BME280;62175;49.416;8.690;2022-10-22T04:13:22;100247.70;;;17.98;64.37
43281;BME280;62175;49.416;8.690;2022-10-22T04:15:49;100249.87;;;18.39;65.96
43281;BME280;62175;49.416;8.690;2022-10-22T04:18:16;100253.08;;;18.01;65.25
43281;BME280;62175;49.416;8.690;2022-10-22T04:20:44;100262.37;;;17.98;65.56
43281;BME280;62175;49.416;8.690;2022-10-22T04:23:12;100270.73;;;17.87;64.95
43281;BME280;62175;49.416;8.690;2022-10-22T04:25:40;100279.32;;;17.90;65.24
43281;BME280;62175;49.416;8.690;2022-10-22T04:28:07;100280.96;;;18.05;65.03
43281;BME280;62175;49.416;8.690;2022-10-22T04:30:35;100284.71;;;18.09;65.83
43281;BME280;62175;49.416;8.690;2022-10-22T04:33:02;100291.03;;;17.87;64.39
43281;BME280;62175;49.416;8.690;2022-10-22T04:35:29;100293.76;;;18.11;64.90
43281;BME280;62175;49.416;8.690;2022-10-22T04:37:56;100305.73;;;17.73;64.94
43281;BME280;62175;49.416;8.690;2022-10-22T04:40:23;100308.07;;;17.81;65.49
43281;BME280;62175;49.416;8.690;2022-10-22T04:42:50;100307.31;;;17.95;65.33
43281;BME280;62175;49.416;8.690;2022-10-22T04:45:17;100304.90;;;17.80;66.20
43281;BME280;62175;49.416;8.690;2022-10-22T04:47:44;100304.31;;;17.87;66.23
43281;BME280;62175;49.416;8.690;2022-10-22T04:50:11;100306.78;;;17.78;65.22
43281;BME280;62175;49.416;8.690;2022-10-22T04:52:38;100308.36;;;17.68;65.14
43281;BME280;62175;49.416;8.690;2022-10-22T04:55:05;100308.27;;;18.19;65.65
43281;BME280;62175;49.416;8.690;2022-10-22T04:57:33;100302.29;;;17.88;65.36
43281;BME280;62175;49.416;8.690;2022-10-22T05:00:00;100302.72;;;17.91;65.58
43281;BME280;62175;49.416;8.690;2022-10-22T05:02:27;100309.57;;;17.85;65.00
43281;BME280;62175;49.416;8.690;2022-10-22T05:04:54;100312.36;;;17.83;65.79
43281;BME280;62175;49.416;8.690;2022-10-22T05:07:21;100316.75;;;17.86;65.44
43281;BME280;62175;49.416;8.690;2022-10-22T05:09:48;100313.60;;;18.00;64.49
43281;BME280;62175;49.416;8.690;2022-10-22T05:12:16;100312.91;;;17.84;64.87
43281;BME280;62175;49.416;8.690;2022-10-22T05:14:42;100314.15;;;17.94;66.14
43281;BME280;62175;49.416;8.690;2022-10-22T05:17:09;100320.07;;;17.83;65.37
43281;BME280;62175;49.416;8.690;2022-10-22T05:19:36;100324.97;;;17.68;66.21
43281;BME280;62175;49.416;8.690;2022-10-22T05:22:04;100327.85;;;18.12;64.47
43281;BME280;62175;49.416;8.690;2022-10-22T05:24:32;100332.07;;;17.81;63.85
43281;BME280;62175;49.416;8.690;2022-10-22T05:27:00;100334.56;;;18.18;65.21
43281;BME280;62175;49.416;8.690;2022-10-22T05:29:27;100334.33;;;18.03;65.43
43281;BME280;62175;49.416;8.690;2022-10-22T05:31:54;100333.75;;;17.90;64.13
43281;BME280;62175;49.416;8.690;2022-10-22T05:34:21;100338.18;;;18.11;65.00
43281;BME280;62175;49.416;8.690;2022-10-22T05:36:48;100341.19;;;18.26;64.88
43281;BME280;62175;49.416;8.690;2022-10-22T05:39:15;100345.87;;;17.89;62.90
43281;BME280;62175;49.416;8.690;2022-10-22T05:41:42;100345.06;;;17.90;64.15
43281;BME280;62175;49.416;8.690;2022-10-22T05:44:11;100348.48;;;18.08;65.76
43281;BME280;62175;49.416;8.690;2022-10-22T05:46:38;100348.06;;;18.05;64.41
43281;BME280;62175;49.416;8.690;2022-10-22T05:49:06;100358.08;;;18.52;64.26
43281;BME280;62175;49.416;8.690;2022-10-22T05:51:36;100366.90;;;18.27;64.71
43281;BME280;62175;49.416;8.690;2022-10-22T05:54:05;100361.44;;;18.09;65.13
43281;BME280;62175;49.416;8.690;2022-10-22T05:56:34;100363.17;;;17.52;65.21
43281;BME280;62175;49.416;8.690;2022-10-22T05:59:01;100367.05;;;18.07;64.64
43281;BME280;62175;49.416;8.690;2022-10-22T06:01:29;100369.07;;;18.14;65.89
43281;BME280;62175;49.416;8.690;2022-10-22T06:03:59;100364.73;;;17.84;65.00
43281;BME280;62175;49.416;8.690;2022-10-22T06:06:29;100368.85;;;18.08;63.56
43281;BME280;62175;49.416;8.690;2022-10-22T06:09:01;100367.66;;;18.07;65.33
43281;BME280;62175;49.416;8.690;2022-10-22T06:11:29;100365.78;;;17.97;63.57
43281;BME280;62175;49.416;8.690;2022-10-22T06:13:56;100374.30;;;17.95;64.21
43281;BME280;62175;49.416;8.690;2022-10-22T06:16:23;100377.61;;;17.92;64.92
43281;BME280;62175;49.416;8.690;2022-10-22T06:18:50;100385.05;;;18.02;64.01
43281;BME280;62175;49.416;8.690;2022-10-22T06:21:17;100390.79;;;18.02;64.32
43281;BME280;62175;49.416;8.690;2022-10-22T06:23:44;100394.17;;;18.12;64.22
43281;BME280;62175;49.416;8.690;2022-10-22T06:26:11;100401.34;;;17.96;63.94
43281;BME280;62175;49.416;8.690;2022-10-22T06:28:38;100400.39;;;17.67;64.21
43281;BME280;62175;49.416;8.690;2022-10-22T06:31:05;100403.40;;;17.87;64.61
43281;BME280;62175;49.416;8.690;2022-10-22T06:33:33;100414.95;;;17.62;64.74
43281;BME280;62175;49.416;8.690;2022-10-22T06:36:05;100416.64;;;17.60;64.55
43281;BME280;62175;49.416;8.690;2022-10-22T06:38:32;100419.65;;;18.19;64.36
43281;BME280;62175;49.416;8.690;2022-10-22T06:41:02;100424.78;;;17.82;63.81
43281;BME280;62175;49.416;8.690;2022-10-22T06:43:29;100429.25;;;18.04;64.26
43281;BME280;62175;49.416;8.690;2022-10-22T06:45:59;100436.14;;;17.93;65.10
43281;BME280;62175;49.416;8.690;2022-10-22T06:48:26;100436.49;;;17.85;64.35
43281;BME280;62175;49.416;8.690;2022-10-22T06:50:53;100445.09;;;17.91;64.41
43281;BME280;62175;49.416;8.690;2022-10-22T06:53:20;100441.54;;;17.89;63.57
43281;BME280;62175;49.416;8.690;2022-10-22T06:55:47;100446.47;;;17.82;64.31
43281;BME280;62175;49.416;8.690;2022-10-22T06:58:14;100449.79;;;18.41;64.89
43281;BME280;62175;49.416;8.690;2022-10-22T07:00:41;100452.97;;;18.10;63.63
43281;BME280;62175;49.416;8.690;2022-10-22T07:03:11;100454.99;;;17.97;64.89
43281;BME280;62175;49.416;8.690;2022-10-22T07:05:39;100459.73;;;17.75;64.24
43281;BME280;62175;49.416;8.690;2022-10-22T07:08:07;100458.52;;;18.23;64.32
43281;BME280;62175;49.416;8.690;2022-10-22T07:10:34;100460.34;;;18.09;63.40
43281;BME280;62175;49.416;8.690;2022-10-22T07:13:01;100462.24;;;18.28;64.37
43281;BME280;62175;49.416;8.690;2022-10-22T07:15:28;100467.43;;;18.14;64.60
43281;BME280;62175;49.416;8.690;2022-10-22T07:17:56;100468.78;;;18.02;64.73
43281;BME280;62175;49.416;8.690;2022-10-22T07:20:22;100480.43;;;18.01;64.53
43281;BME280;62175;49.416;8.690;2022-10-22T07:22:49;100475.98;;;18.03;64.28
43281;BME280;62175;49.416;8.690;2022-10-22T07:25:16;100476.90;;;18.40;64.84
43281;BME280;62175;49.416;8.690;2022-10-22T07:27:43;100479.14;;;18.42;64.70
43281;BME280;62175;49.416;8.690;2022-10-22T07:30:11;100482.32;;;18.15;65.00
43281;BME280;62175;49.416;8.690;2022-10-22T07:32:38;100488.42;;;18.06;64.31
43281;BME280;62175;49.416;8.690;2022-10-22T07:35:06;100483.83;;;18.23;62.80
43281;BME280;62175;49.416;8.690;2022-10-22T07:37:33;100487.91;;;18.28;62.50
43281;BME280;62175;49.416;8.690;2022-10-22T07:40:00;100487.40;;;18.58;63.77
43281;BME280;62175;49.416;8.690;2022-10-22T07:42:28;100488.20;;;18.35;63.25
43281;BME280;62175;49.416;8.690;2022-10-22T07:44:55;100488.24;;;18.44;64.10
43281;BME280;62175;49.416;8.690;2022-10-22T07:47:22;100494.99;;;18.13;64.07
43281;BME280;62175;49.416;8.690;2022-10-22T07:49:49;100496.42;;;18.40;63.61
43281;BME280;62175;49.416;8.690;2022-10-22T07:52:16;100499.38;;;18.51;63.43
43281;BME280;62175;49.416;8.690;2022-10-22T07:54:43;100506.86;;;18.47;62.91
43281;BME280;62175;49.416;8.690;2022-10-22T07:57:10;100507.50;;;18.52;62.91
43281;BME280;62175;49.416;8.690;2022-10-22T07:59:37;100506.83;;;18.32;63.09
43281;BME280;62175;49.416;8.690;2022-10-22T08:02:04;100505.90;;;18.41;63.51
43281;BME280;62175;49.416;8.690;2022-10-22T08:04:31;100505.60;;;18.34;62.99
43281;BME280;62175;49.416;8.690;2022-10-22T08:06:58;100509.30;;;18.36;64.10
43281;BME280;62175;49.416;8.690;2022-10-22T08:09:26;100505.42;;;18.22;62.91
43281;BME280;62175;49.416;8.690;2022-10-22T08:11:53;100510.15;;;18.41;63.42
43281;BME280;62175;49.416;8.690;2022-10-22T08:14:19;100504.92;;;18.28;62.72
43281;BME280;62175;49.416;8.690;2022-10-22T08:16:47;100506.66;;;18.40;63.94
43281;BME280;62175;49.416;8.690;2022-10-22T08:19:14;100509.16;;;18.12;63.43
43281;BME280;62175;49.416;8.690;2022-10-22T08:21:41;100507.07;;;18.30;62.49
43281;BME280;62175;49.416;8.690;2022-10-22T08:24:08;100510.19;;;18.62;63.09
43281;BME280;62175;49.416;8.690;2022-10-22T08:26:35;100506.56;;;18.54;63.12
43281;BME280;62175;49.416;8.690;2022-10-22T08:29:02;100506.73;;;18.53;63.10
43281;BME280;62175;49.416;8.690;2022-10-22T08:31:30;100511.27;;;18.25;62.97
43281;BME280;62175;49.416;8.690;2022-10-22T08:33:57;100508.09;;;18.49;63.79
43281;BME280;62175;49.416;8.690;2022-10-22T08:36:24;100511.27;;;18.82;63.65
43281;BME280;62175;49.416;8.690;2022-10-22T08:38:51;100514.85;;;18.46;62.56
43281;BME280;62175;49.416;8.690;2022-10-22T08:41:21;100518.03;;;18.30;64.02
43281;BME280;62175;49.416;8.690;2022-10-22T08:44:02;100516.13;;;18.41;62.66
43281;BME280;62175;49.416;8.690;2022-10-22T08:46:39;100522.60;;;18.74;62.76
43281;BME280;62175;49.416;8.690;2022-10-22T08:49:13;100528.40;;;18.55;61.52
43281;BME280;62175;49.416;8.690;2022-10-22T08:51:45;100535.93;;;18.40;62.80
43281;BME280;62175;49.416;8.690;2022-10-22T08:54:21;100541.26;;;18.42;62.36
43281;BME280;62175;49.416;8.690;2022-10-22T08:56:58;100543.48;;;18.66;62.97
43281;BME280;62175;49.416;8.690;2022-10-22T08:59:37;100545.48;;;18.55;62.20
43281;BME280;62175;49.416;8.690;2022-10-22T09:02:21;100551.14;;;18.47;61.67
43281;BME280;62175;49.416;8.690;2022-10-22T09:04:58;100553.30;;;18.69;62.95
43281;BME280;62175;49.416;8.690;2022-10-22T09:07:28;100551.50;;;18.72;63.24
43281;BME280;62175;49.416;8.690;2022-10-22T09:09:57;100551.35;;;18.68;61.50
43281;BME280;62175;49.416;8.690;2022-10-22T09:12:27;100549.41;;;18.84;62.85
43281;BME280;62175;49.416;8.690;2022-10-22T09:14:54;100556.26;;;18.97;62.61
43281;BME280;62175;49.416;8.690;2022-10-22T09:17:27;100561.49;;;18.93;64.01
43281;BME280;62175;49.416;8.690;2022-10-22T09:20:03;100564.42;;;18.80;62.69
43281;BME280;62175;49.416;8.690;2022-10-22T09:22:38;100565.69;;;18.94;61.87
43281;BME280;62175;49.416;8.690;2022-10-22T09:25:16;100563.40;;;18.97;62.07
43281;BME280;62175;49.416;8.690;2022-10-22T09:27:45;100565.55;;;18.90;62.58
43281;BME280;62175;49.416;8.690;2022-10-22T09:30:15;100567.66;;;18.93;62.40
43281;BME280;62175;49.416;8.690;2022-10-22T09:32:43;100569.78;;;18.96;62.63
43281;BME280;62175;49.416;8.690;2022-10-22T09:35:12;100566.07;;;19.01;62.52
43281;BME280;62175;49.416;8.690;2022-10-22T09:37:48;100567.16;;;19.00;62.31
43281;BME280;62175;49.416;8.690;2022-10-22T09:40:16;100571.67;;;18.97;63.07
43281;BME280;62175;49.416;8.690;2022-10-22T09:42:44;100572.14;;;18.98;62.87
43281;BME280;62175;49.416;8.690;2022-10-22T09:45:18;100573.15;;;18.94;62.17
43281;BME280;62175;49.416;8.690;2022-10-22T09:47:46;100566.99;;;18.92;62.72
43281;BME280;62175;49.416;8.690;2022-10-22T09:50:26;100568.63;;;18.95;63.89
43281;BME280;62175;49.416;8.690;2022-10-22T09:52:59;100570.50;;;19.00;62.12
43281;BME280;62175;49.416;8.690;2022-10-22T09:55:27;100570.82;;;19.14;62.37
43281;BME280;62175;49.416;8.690;2022-10-22T09:57:57;100568.31;;;18.96;63.11
43281;BME280;62175;49.416;8.690;2022-10-22T10:00:26;100572.17;;;18.87;63.29
43281;BME280;62175;49.416;8.690;2022-10-22T10:02:55;100574.43;;;18.97;61.88
43281;BME280;62175;49.416;8.690;2022-10-22T10:05:28;100575.67;;;19.09;63.11
43281;BME280;62175;49.416;8.690;2022-10-22T10:07:56;100580.10;;;19.10;64.08
43281;BME280;62175;49.416;8.690;2022-10-22T10:10:32;100581.68;;;18.97;62.69
43281;BME280;62175;49.416;8.690;2022-10-22T10:13:09;100584.32;;;19.08;63.36
43281;BME280;62175;49.416;8.690;2022-10-22T10:15:53;100582.56;;;19.08;62.44
43281;BME280;62175;49.416;8.690;2022-10-22T10:18:32;100578.87;;;18.89;62.39
43281;BME280;62175;49.416;8.690;2022-10-22T10:21:08;100579.18;;;19.11;63.34
43281;BME280;62175;49.416;8.690;2022-10-22T10:23:43;100579.57;;;19.07;62.37
43281;BME280;62175;49.416;8.690;2022-10-22T10:26:17;100580.96;;;19.05;63.85
43281;BME280;62175;49.416;8.690;2022-10-22T10:28:55;100584.98;;;18.96;63.37
43281;BME280;62175;49.416;8.690;2022-10-22T10:31:33;100581.31;;;19.11;63.17
43281;BME280;62175;49.416;8.690;2022-10-22T10:34:15;100573.20;;;19.07;61.31
43281;BME280;62175;49.416;8.690;2022-10-22T10:36:53;100573.61;;;19.01;62.34
43281;BME280;62175;49.416;8.690;2022-10-22T10:39:31;100578.33;;;19.08;63.15
43281;BME280;62175;49.416;8.690;2022-10-22T10:42:06;100574.00;;;18.92;62.98
43281;BME280;62175;49.416;8.690;2022-10-22T10:44:51;100575.30;;;19.12;61.37
43281;BME280;62175;49.416;8.690;2022-10-22T10:47:36;100574.16;;;19.23;62.47
43281;BME280;62175;49.416;8.690;2022-10-22T10:50:17;100577.76;;;19.26;62.56
43281;BME280;62175;49.416;8.690;2022-10-22T10:52:53;100578.88;;;19.06;63.05
43281;BME280;62175;49.416;8.690;2022-10-22T10:55:29;100577.98;;;19.03;61.92
43281;BME280;62175;49.416;8.690;2022-10-22T10:58:05;100577.02;;;19.22;61.79
43281;BME280;62175;49.416;8.690;2022-10-22T11:00:45;100578.68;;;19.17;62.63
43281;BME280;62175;49.416;8.690;2022-10-22T11:03:33;100571.19;;;19.25;62.35
43281;BME280;62175;49.416;8.690;2022-10-22T11:06:07;100570.24;;;19.17;61.80
43281;BME280;62175;49.416;8.690;2022-10-22T11:08:37;100566.24;;;19.39;61.86
43281;BME280;62175;49.416;8.690;2022-10-22T11:11:10;100567.09;;;19.29;62.21
43281;BME280;62175;49.416;8.690;2022-10-22T11:13:42;100565.75;;;19.11;61.37
43281;BME280;62175;49.416;8.690;2022-10-22T11:16:17;100563.09;;;19.45;62.64
43281;BME280;62175;49.416;8.690;2022-10-22T11:18:48;100563.26;;;19.66;60.73
43281;BME280;62175;49.416;8.690;2022-10-22T11:21:23;100559.69;;;19.02;60.93
43281;BME280;62175;49.416;8.690;2022-10-22T11:23:57;100557.04;;;19.24;60.59
43281;BME280;62175;49.416;8.690;2022-10-22T11:26:37;100560.00;;;19.45;61.04
43281;BME280;62175;49.416;8.690;2022-10-22T11:29:10;100561.80;;;19.39;60.57
43281;BME280;62175;49.416;8.690;2022-10-22T11:31:39;100562.46;;;19.64;60.13
43281;BME280;62175;49.416;8.690;2022-10-22T11:34:14;100570.69;;;19.05;60.68
43281;BME280;62175;49.416;8.690;2022-10-22T11:36:42;100572.07;;;19.92;59.58
43281;BME280;62175;49.416;8.690;2022-10-22T11:39:29;100572.44;;;19.34;60.71
43281;BME280;62175;49.416;8.690;2022-10-22T11:41:58;100568.44;;;19.49;60.76
43281;BME280;62175;49.416;8.690;2022-10-22T11:44:27;100572.83;;;19.14;61.14
43281;BME280;62175;49.416;8.690;2022-10-22T11:46:56;100569.58;;;19.46;61.90
43281;BME280;62175;49.416;8.690;2022-10-22T11:49:26;100570.08;;;19.41;61.64
43281;BME280;62175;49.416;8.690;2022-10-22T11:52:20;100569.12;;;19.13;61.21
43281;BME280;62175;49.416;8.690;2022-10-22T11:54:49;100563.37;;;19.53;59.47
43281;BME280;62175;49.416;8.690;2022-10-22T11:57:24;100561.91;;;19.51;58.71
43281;BME280;62175;49.416;8.690;2022-10-22T11:59:56;100558.24;;;19.29;58.70
43281;BME280;62175;49.416;8.690;2022-10-22T12:02:30;100551.57;;;19.57;58.61
43281;BME280;62175;49.416;8.690;2022-10-22T12:05:34;100552.36;;;19.35;60.46
43281;BME280;62175;49.416;8.690;2022-10-22T12:08:11;100538.66;;;19.52;59.18
43281;BME280;62175;49.416;8.690;2022-10-22T12:10:54;100535.85;;;19.71;59.35
43281;BME280;62175;49.416;8.690;2022-10-22T12:13:25;100534.10;;;19.70;60.27
43281;BME280;62175;49.416;8.690;2022-10-22T12:15:56;100535.03;;;19.42;58.28
43281;BME280;62175;49.416;8.690;2022-10-22T12:18:26;100542.39;;;19.58;59.27
43281;BME280;62175;49.416;8.690;2022-10-22T12:20:54;100542.09;;;20.00;58.15
43281;BME280;62175;49.416;8.690;2022-10-22T12:23:27;100541.52;;;19.44;58.66
43281;BME280;62175;49.416;8.690;2022-10-22T12:25:56;100535.23;;;19.47;59.63
43281;BME280;62175;49.416;8.690;2022-10-22T12:28:23;100534.09;;;19.70;59.84
43281;BME280;62175;49.416;8.690;2022-10-22T12:30:50;100532.76;;;19.34;58.91
43281;BME280;62175;49.416;8.690;2022-10-22T12:33:19;100530.66;;;19.62;59.50
43281;BME280;62175;49.416;8.690;2022-10-22T12:35:48;100530.22;;;19.25;59.98
43281;BME280;62175;49.416;8.690;2022-10-22T12:38:17;100525.20;;;19.35;59.23
43281;BME280;62175;49.416;8.690;2022-10-22T12:40:45;100524.40;;;19.29;59.93
43281;BME280;62175;49.416;8.690;2022-10-22T12:43:16;100525.29;;;19.89;60.74
43281;BME280;62175;49.416;8.690;2022-10-22T12:45:46;100526.49;;;19.48;60.12
43281;BME280;62175;49.416;8.690;2022-10-22T12:48:16;100525.82;;;19.21;61.22
43281;BME280;62175;49.416;8.690;2022-10-22T12:50:46;100525.12;;;19.35;61.00
43281;BME280;62175;49.416;8.690;2022-10-22T12:53:17;100525.17;;;19.38;61.34
43281;BME280;62175;49.416;8.690;2022-10-22T12:55:46;100524.58;;;19.42;61.30
43281;BME280;62175;49.416;8.690;2022-10-22T12:58:16;100524.58;;;19.79;61.54
43281;BME280;62175;49.416;8.690;2022-10-22T13:00:46;100526.36;;;19.64;61.29
43281;BME280;62175;49.416;8.690;2022-10-22T13:03:25;100525.33;;;19.89;61.19
43281;BME280;62175;49.416;8.690;2022-10-22T13:05:52;100530.08;;;19.67;61.25